Terminal Aerodrome Forecast
Issued by NWS

Home | Current Version | Previous Version | Text Only | Print | Product List | Glossary On
Versions: 1 2 3 4 5 6 7 8 9 10 11 12 13 14 15 16 17 18 19 20
271
FTUS46 KHNX 082320
TAFVIS
TAF
KVIS 082320Z 0900/0924 12005KT 6SM BR OVC050
      TEMPO 0900/0904 2SM -RA BR BKN005 OVC030
     FM090600 13008KT 2SM -RA BR SCT005 OVC015
     FM091800 14012KT 4SM BR VCSH BKN015 OVC050=

USA.gov is the U.S. government's official web portal to all federal, state and local government web resources and services.